地図

経路データ

SID SEASON NUMBER BASIN SUBBASIN NAME ISO_TIME NATURE LAT LON WMO_WIND WMO_PRES WMO_AGENCY TRACK_TYPE DIST2LAND LANDFALL IFLAG USA_AGENCY USA_ATCF_ID USA_LAT USA_LON USA_RECORD USA_STATUS USA_WIND USA_PRES USA_SSHS USA_R34_NE USA_R34_SE USA_R34_SW USA_R34_NW USA_R50_NE USA_R50_SE USA_R50_SW USA_R50_NW USA_R64_NE USA_R64_SE USA_R64_SW USA_R64_NW USA_POCI USA_ROCI USA_RMW USA_EYE TOKYO_LAT TOKYO_LON TOKYO_GRADE TOKYO_WIND TOKYO_PRES TOKYO_R50_DIR TOKYO_R50_LONG TOKYO_R50_SHORT TOKYO_R30_DIR TOKYO_R30_LONG TOKYO_R30_SHORT TOKYO_LAND CMA_LAT CMA_LON CMA_CAT CMA_WIND CMA_PRES HKO_LAT HKO_LON HKO_CAT HKO_WIND HKO_PRES NEWDELHI_LAT NEWDELHI_LON NEWDELHI_GRADE NEWDELHI_WIND NEWDELHI_PRES NEWDELHI_CI NEWDELHI_DP NEWDELHI_POCI REUNION_LAT REUNION_LON REUNION_TYPE REUNION_WIND REUNION_PRES REUNION_TNUM REUNION_CI REUNION_RMW REUNION_R34_NE REUNION_R34_SE REUNION_R34_SW REUNION_R34_NW REUNION_R50_NE REUNION_R50_SE REUNION_R50_SW REUNION_R50_NW REUNION_R64_NE REUNION_R64_SE REUNION_R64_SW REUNION_R64_NW BOM_LAT BOM_LON BOM_TYPE BOM_WIND BOM_PRES BOM_TNUM BOM_CI BOM_RMW BOM_R34_NE BOM_R34_SE BOM_R34_SW BOM_R34_NW BOM_R50_NE BOM_R50_SE BOM_R50_SW BOM_R50_NW BOM_R64_NE BOM_R64_SE BOM_R64_SW BOM_R64_NW BOM_ROCI BOM_POCI BOM_EYE BOM_POS_METHOD BOM_PRES_METHOD NADI_LAT NADI_LON NADI_CAT NADI_WIND NADI_PRES WELLINGTON_LAT WELLINGTON_LON WELLINGTON_WIND WELLINGTON_PRES DS824_LAT DS824_LON DS824_STAGE DS824_WIND DS824_PRES TD9636_LAT TD9636_LON TD9636_STAGE TD9636_WIND TD9636_PRES TD9635_LAT TD9635_LON TD9635_WIND TD9635_PRES TD9635_ROCI NEUMANN_LAT NEUMANN_LON NEUMANN_CLASS NEUMANN_WIND NEUMANN_PRES MLC_LAT MLC_LON MLC_CLASS MLC_WIND MLC_PRES USA_GUST BOM_GUST BOM_GUST_PER REUNION_GUST REUNION_GUST_PER USA_SEAHGT USA_SEARAD_NE USA_SEARAD_SE USA_SEARAD_SW USA_SEARAD_NW STORM_SPEED STORM_DIR
1911235N25295 1911 54 NA NA NOT_NAMED 1911-08-23 06:00:00 TS 25.2000 -65.5000 35 hurdat_atl main 760 751 O_____________ hurdat_atl AL031911 25.2000 -65.5000 TS 35 0 10 288
1911235N25295 1911 54 NA NA NOT_NAMED 1911-08-23 09:00:00 TS 25.3504 -66.0097 main 761 748 P_____________ AL031911 25.3504 -66.0097 TS 37 0 10 288
1911235N25295 1911 54 NA NA NOT_NAMED 1911-08-23 12:00:00 TS 25.5000 -66.5000 40 hurdat_atl main 750 741 O_____________ hurdat_atl AL031911 25.5000 -66.5000 TS 40 0 9 289
1911235N25295 1911 54 NA NA NOT_NAMED 1911-08-23 15:00:00 TS 25.6498 -66.9576 main 737 735 P_____________ AL031911 25.6498 -66.9576 TS 40 0 9 290
1911235N25295 1911 54 NA NA NOT_NAMED 1911-08-23 18:00:00 TS 25.8000 -67.4000 40 hurdat_atl main 742 738 O_____________ hurdat_atl AL031911 25.8000 -67.4000 TS 40 0 9 291
1911235N25295 1911 54 NA NA NOT_NAMED 1911-08-23 21:00:00 TS 25.9574 -67.8500 main 746 727 P_____________ AL031911 25.9574 -67.8500 TS 42 0 9 290
1911235N25295 1911 54 NA NA NOT_NAMED 1911-08-24 00:00:00 TS 26.1000 -68.3000 45 hurdat_atl main 727 709 O_____________ hurdat_atl AL031911 26.1000 -68.3000 TS 45 0 9 287
1911235N25295 1911 54 NA NA NOT_NAMED 1911-08-24 03:00:00 TS 26.2074 -68.7576 main 703 688 P_____________ AL031911 26.2074 -68.7576 TS 47 0 8 284
1911235N25295 1911 54 NA NA NOT_NAMED 1911-08-24 06:00:00 TS 26.3000 -69.2000 50 hurdat_atl main 688 676 O_____________ hurdat_atl AL031911 26.3000 -69.2000 TS 50 0 8 284
1911235N25295 1911 54 NA NA NOT_NAMED 1911-08-24 09:00:00 TS 26.3999 -69.6151 main 676 665 P_____________ AL031911 26.3999 -69.6151 TS 52 0 7 286
1911235N25295 1911 54 NA NA NOT_NAMED 1911-08-24 12:00:00 TS 26.5000 -70.0000 55 hurdat_atl main 666 657 O_____________ hurdat_atl AL031911 26.5000 -70.0000 TS 55 0 7 287
1911235N25295 1911 54 NA NA NOT_NAMED 1911-08-24 15:00:00 TS 26.5999 -70.3576 main 658 654 P_____________ AL031911 26.5999 -70.3576 TS 57 0 7 288
1911235N25295 1911 54 NA NA NOT_NAMED 1911-08-24 18:00:00 TS 26.7000 -70.7000 60 hurdat_atl main 657 650 O_____________ hurdat_atl AL031911 26.7000 -70.7000 TS 60 0 6 287
1911235N25295 1911 54 NA NA NOT_NAMED 1911-08-24 21:00:00 TS 26.7924 -71.0501 main 654 651 P_____________ AL031911 26.7924 -71.0501 TS 62 0 7 288
1911235N25295 1911 54 NA NA NOT_NAMED 1911-08-25 00:00:00 TS 26.9000 -71.4000 65 hurdat_atl main 657 654 O_____________ hurdat_atl AL031911 26.9000 -71.4000 HU 65 1 7 292
1911235N25295 1911 54 NA NA NOT_NAMED 1911-08-25 03:00:00 TS 27.0424 -71.7500 main 652 633 P_____________ AL031911 27.0424 -71.7500 HU 67 1 7 296
1911235N25295 1911 54 NA NA NOT_NAMED 1911-08-25 06:00:00 TS 27.2000 -72.1000 70 hurdat_atl main 633 609 O_____________ hurdat_atl AL031911 27.2000 -72.1000 HU 70 1 7 295
1911235N25295 1911 54 NA NA NOT_NAMED 1911-08-25 09:00:00 TS 27.3349 -72.4502 main 600 583 P_____________ AL031911 27.3349 -72.4502 HU 70 1 7 296
1911235N25295 1911 54 NA NA NOT_NAMED 1911-08-25 12:00:00 TS 27.5000 -72.8000 70 hurdat_atl main 583 567 O_____________ hurdat_atl AL031911 27.5000 -72.8000 HU 70 1 7 302
1911235N25295 1911 54 NA NA NOT_NAMED 1911-08-25 15:00:00 TS 27.7199 -73.1427 main 567 552 P_____________ AL031911 27.7199 -73.1427 HU 72 1 8 309
1911235N25295 1911 54 NA NA NOT_NAMED 1911-08-25 18:00:00 TS 28.0000 -73.5000 75 hurdat_atl main 552 541 O_____________ hurdat_atl AL031911 28.0000 -73.5000 HU 75 1 9 312
1911235N25295 1911 54 NA NA NOT_NAMED 1911-08-25 21:00:00 TS 28.3200 -73.8927 main 541 541 P_____________ AL031911 28.3200 -73.8927 HU 77 1 10 315
1911235N25295 1911 54 NA NA NOT_NAMED 1911-08-26 00:00:00 TS 28.7000 -74.3000 80 hurdat_atl main 543 543 O_____________ hurdat_atl AL031911 28.7000 -74.3000 HU 80 1 11 320
1911235N25295 1911 54 NA NA NOT_NAMED 1911-08-26 03:00:00 TS 29.1649 -74.7073 main 562 538 P_____________ AL031911 29.1649 -74.7073 HU 80 1 11 322
1911235N25295 1911 54 NA NA NOT_NAMED 1911-08-26 06:00:00 TS 29.6000 -75.1000 80 hurdat_atl main 538 508 O_____________ hurdat_atl AL031911 29.6000 -75.1000 HU 80 1 10 318
1911235N25295 1911 54 NA NA NOT_NAMED 1911-08-26 09:00:00 TS 29.8874 -75.4654 main 504 469 P_____________ AL031911 29.8874 -75.4654 HU 80 1 8 309
1911235N25295 1911 54 NA NA NOT_NAMED 1911-08-26 12:00:00 TS 30.1000 -75.8000 80 hurdat_atl main 469 433 O_____________ hurdat_atl AL031911 30.1000 -75.8000 HU 80 1 7 308
1911235N25295 1911 54 NA NA NOT_NAMED 1911-08-26 15:00:00 TS 30.3148 -76.1002 main 433 397 P_____________ AL031911 30.3148 -76.1002 HU 80 1 7 308
1911235N25295 1911 54 NA NA NOT_NAMED 1911-08-26 18:00:00 TS 30.5000 -76.4000 80 hurdat_atl main 397 369 O_____________ hurdat_atl AL031911 30.5000 -76.4000 HU 80 1 7 302
1911235N25295 1911 54 NA NA NOT_NAMED 1911-08-26 21:00:00 TS 30.6575 -76.7426 main 361 327 P_____________ AL031911 30.6575 -76.7426 HU 80 1 7 296
1911235N25295 1911 54 NA NA NOT_NAMED 1911-08-27 00:00:00 TS 30.8000 -77.1000 80 hurdat_atl main 327 300 O_____________ hurdat_atl AL031911 30.8000 -77.1000 HU 80 1 7 296
1911235N25295 1911 54 NA NA NOT_NAMED 1911-08-27 03:00:00 TS 30.9423 -77.4353 main 300 259 P_____________ AL031911 30.9423 -77.4353 HU 80 1 7 297
1911235N25295 1911 54 NA NA NOT_NAMED 1911-08-27 06:00:00 TS 31.1000 -77.8000 80 hurdat_atl main 259 220 O_____________ hurdat_atl AL031911 31.1000 -77.8000 HU 80 1 8 297
1911235N25295 1911 54 NA NA NOT_NAMED 1911-08-27 09:00:00 TS 31.3003 -78.2647 main 215 173 P_____________ AL031911 31.3003 -78.2647 HU 82 1 9 297
1911235N25295 1911 54 NA NA NOT_NAMED 1911-08-27 12:00:00 TS 31.5000 -78.7000 85 hurdat_atl main 173 137 O_____________ hurdat_atl AL031911 31.5000 -78.7000 HU 85 2 7 301
1911235N25295 1911 54 NA NA NOT_NAMED 1911-08-27 15:00:00 TS 31.6648 -78.9877 main 137 116 P_____________ AL031911 31.6648 -78.9877 HU 85 2 5 305
1911235N25295 1911 54 NA NA NOT_NAMED 1911-08-27 18:00:00 TS 31.8000 -79.2000 85 hurdat_atl main 116 96 O_____________ hurdat_atl AL031911 31.8000 -79.2000 HU 85 2 4 306
1911235N25295 1911 54 NA NA NOT_NAMED 1911-08-27 21:00:00 TS 31.9148 -79.3851 main 96 76 P_____________ AL031911 31.9148 -79.3851 HU 85 2 4 300
1911235N25295 1911 54 NA NA NOT_NAMED 1911-08-28 00:00:00 TS 32.0000 -79.6000 85 hurdat_atl main 76 56 O_____________ hurdat_atl AL031911 32.0000 -79.6000 HU 85 2 5 286
1911235N25295 1911 54 NA NA NOT_NAMED 1911-08-28 03:00:00 TS 32.0527 -79.9379 main 56 35 P_____________ AL031911 32.0527 -79.9379 HU 85 2 6 280
1911235N25295 1911 54 NA NA NOT_NAMED 1911-08-28 06:00:00 TS 32.1000 -80.3000 85 972 hurdat_atl main 35 9 O_____________ hurdat_atl AL031911 32.1000 -80.3000 HU 85 972 2 6 284
1911235N25295 1911 54 NA NA NOT_NAMED 1911-08-28 09:00:00 TS 32.1841 -80.5817 main 9 0 P_____________ AL031911 32.1841 -80.5817 HU 85 972 2 5 287
1911235N25295 1911 54 NA NA NOT_NAMED 1911-08-28 10:00:00 TS 32.2000 -80.7000 85 972 hurdat_atl main 0 0 O_____________ hurdat_atl AL031911 32.2000 -80.7000 L HU 85 972 2 7 273
1911235N25295 1911 54 NA NA NOT_NAMED 1911-08-28 12:00:00 TS 32.2000 -81.0000 65 hurdat_atl main 0 0 O_____________ hurdat_atl AL031911 32.2000 -81.0000 HU 65 1 6 274
1911235N25295 1911 54 NA NA NOT_NAMED 1911-08-28 15:00:00 TS 32.2381 -81.2965 main 0 0 P_____________ AL031911 32.2381 -81.2965 HU 57 0 4 283
1911235N25295 1911 54 NA NA NOT_NAMED 1911-08-28 18:00:00 TS 32.3000 -81.5000 50 hurdat_atl main 0 0 O_____________ hurdat_atl AL031911 32.3000 -81.5000 TS 50 0 4 288
1911235N25295 1911 54 NA NA NOT_NAMED 1911-08-28 21:00:00 TS 32.3650 -81.7499 main 0 0 P_____________ AL031911 32.3650 -81.7499 TS 47 0 4 283
1911235N25295 1911 54 NA NA NOT_NAMED 1911-08-29 00:00:00 TS 32.4000 -82.0000 45 hurdat_atl main 0 0 O_____________ hurdat_atl AL031911 32.4000 -82.0000 TS 45 0 4 271
1911235N25295 1911 54 NA NA NOT_NAMED 1911-08-29 03:00:00 TS 32.3725 -82.2500 main 0 0 P_____________ AL031911 32.3725 -82.2500 TS 40 0 4 257
1911235N25295 1911 54 NA NA NOT_NAMED 1911-08-29 06:00:00 TS 32.3000 -82.5000 35 hurdat_atl main 0 0 O_____________ hurdat_atl AL031911 32.3000 -82.5000 TS 35 0 5 248
1911235N25295 1911 54 NA NA NOT_NAMED 1911-08-29 09:00:00 TS 32.2000 -82.7576 main 0 0 P_____________ AL031911 32.2000 -82.7576 TS 35 0 5 245
1911235N25295 1911 54 NA NA NOT_NAMED 1911-08-29 12:00:00 TS 32.1000 -83.0000 35 hurdat_atl main 0 0 O_____________ hurdat_atl AL031911 32.1000 -83.0000 TS 35 0 4 245
1911235N25295 1911 54 NA NA NOT_NAMED 1911-08-29 15:00:00 TS 32.0200 -83.2150 main 0 0 P_____________ AL031911 32.0200 -83.2150 TS 32 -1 4 253
1911235N25295 1911 54 NA NA NOT_NAMED 1911-08-29 18:00:00 TS 32.0000 -83.4000 30 hurdat_atl main 0 0 O_____________ hurdat_atl AL031911 32.0000 -83.4000 TD 30 -1 3 272
1911235N25295 1911 54 NA NA NOT_NAMED 1911-08-29 21:00:00 TS 32.0325 -83.5651 main 0 0 P_____________ AL031911 32.0325 -83.5651 TD 30 -1 3 308
1911235N25295 1911 54 NA NA NOT_NAMED 1911-08-30 00:00:00 TS 32.2000 -83.7000 30 hurdat_atl main 0 0 O_____________ hurdat_atl AL031911 32.2000 -83.7000 TD 30 -1 6 337
1911235N25295 1911 54 NA NA NOT_NAMED 1911-08-30 03:00:00 TS 32.5400 -83.8149 main 0 0 P_____________ AL031911 32.5400 -83.8149 TD 30 -1 8 348
1911235N25295 1911 54 NA NA NOT_NAMED 1911-08-30 06:00:00 TS 33.0000 -83.9000 30 hurdat_atl main 0 0 O_____________ hurdat_atl AL031911 33.0000 -83.9000 TD 30 -1 10 351
1911235N25295 1911 54 NA NA NOT_NAMED 1911-08-30 09:00:00 TS 33.4999 -84.0019 main 0 0 P_____________ AL031911 33.4999 -84.0019 TD 30 -1 10 355
1911235N25295 1911 54 NA NA NOT_NAMED 1911-08-30 12:00:00 ET 34.0000 -84.0000 30 hurdat_atl main 0 0 O_____________ hurdat_atl AL031911 34.0000 -84.0000 EX 30 -4 9 9
1911235N25295 1911 54 NA NA NOT_NAMED 1911-08-30 15:00:00 ET 34.4298 -83.8326 main 0 0 P_____________ AL031911 34.4298 -83.8326 EX 30 -4 9 27
1911235N25295 1911 54 NA NA NOT_NAMED 1911-08-30 18:00:00 ET 34.8000 -83.5000 30 hurdat_atl main 0 0 O_____________ hurdat_atl AL031911 34.8000 -83.5000 EX 30 -4 9 42
1911235N25295 1911 54 NA NA NOT_NAMED 1911-08-30 21:00:00 ET 35.1296 -83.0748 main 0 0 P_____________ AL031911 35.1296 -83.0748 EX 27 -4 10 54
1911235N25295 1911 54 NA NA NOT_NAMED 1911-08-31 00:00:00 ET 35.4000 -82.5000 25 hurdat_atl main 0 0 O_____________ hurdat_atl AL031911 35.4000 -82.5000 EX 25 -4 12 64
1911235N25295 1911 54 NA NA NOT_NAMED 1911-08-31 03:00:00 ET 35.6301 -81.7875 main 0 0 P_____________ AL031911 35.6301 -81.7875 EX 25 -4 13 72
1911235N25295 1911 54 NA NA NOT_NAMED 1911-08-31 06:00:00 ET 35.8000 -81.0000 25 hurdat_atl main 0 0 O_____________ hurdat_atl AL031911 35.8000 -81.0000 EX 25 -4 13 77
1911235N25295 1911 54 NA NA NOT_NAMED 1911-08-31 09:00:00 ET 35.9156 -80.2376 main 0 0 P_____________ AL031911 35.9156 -80.2376 EX 22 -4 12 81
1911235N25295 1911 54 NA NA NOT_NAMED 1911-08-31 12:00:00 ET 36.0000 -79.5000 20 hurdat_atl main 0 O_____________ hurdat_atl AL031911 36.0000 -79.5000 EX 20 -4 12 82

IBTrACS Databaseについて

本データベースは、米国NOAAが公開する1842年以降の世界の熱帯低気圧のベストトラックデータアーカイブInternational Best Track Archive for Climate Stewardship (IBTrACS)を、ウェブで閲覧しやすい形式に変換したものです。

最終更新日:2021-10-21